Elbow Lake, Minnesota
Current Conditions -  °F | °C
As of 1:35 PM on Thursday 23 Oct 2014 (Local Time) from KY63 Reporting Station
Clear Clear  
Wind Chill: 18°   Ceiling: Unl
Heat Index: 18°   Visibility: 10mi
Dew Point:   Wind: 9mph
Humidity: 49%   Direction: 220°SW
Pressure: 29.94"   Gusts: NA
Location:  45.99°N, 95.98°W
Report Text: KY63 231835Z AUTO 22008KT 10SM CLR 18/07 A2994 RMK AO2 T01790070
Loading
Personal Weather Stations






























Interactive Weather Map
Tropical Storm Tracking
New forecast layout! Learn more

10-Day Weather Forecast

Advertisements
Track Severe Weather on mobile